createdAt,value
2023-05-15T00:00:14.579Z,100297.09
2023-05-15T00:00:48.189Z,100298.22
2023-05-15T00:01:23.399Z,100298.53
2023-05-15T00:01:55.707Z,100295.34
2023-05-15T00:02:28.013Z,100296.47
2023-05-15T00:03:03.121Z,100296.75
2023-05-15T00:03:35.361Z,100295.16
2023-05-15T00:04:07.723Z,100289.69
2023-05-15T00:04:42.564Z,100300.63
2023-05-15T00:05:15.005Z,100298.22
2023-05-15T00:05:47.244Z,100293.56
2023-05-15T00:06:20.181Z,100291.94
2023-05-15T00:06:55.019Z,100288.72
2023-05-15T00:07:27.246Z,100291.78
2023-05-15T00:07:59.444Z,100296.44
2023-05-15T00:08:34.577Z,100295.63
2023-05-15T00:09:06.702Z,100298.66
2023-05-15T00:09:39.253Z,100298.66
2023-05-15T00:10:13.987Z,100293.22
2023-05-15T00:10:57.572Z,100295.47
2023-05-15T00:11:35.929Z,100292.88
2023-05-15T00:12:11.433Z,100295.63
2023-05-15T00:12:43.698Z,100291.28
2023-05-15T00:13:17.355Z,100291.56
2023-05-15T00:13:52.411Z,100296.22
2023-05-15T00:14:25.467Z,100289.50
2023-05-15T00:14:57.621Z,100295.75
2023-05-15T00:15:32.399Z,100289.81
2023-05-15T00:16:05.003Z,100296.41
2023-05-15T00:16:37.254Z,100287.72
2023-05-15T00:17:12.759Z,100290.44
2023-05-15T00:17:44.948Z,100296.22
2023-05-15T00:18:17.186Z,100294.28
2023-05-15T00:18:49.395Z,100292.66
2023-05-15T00:19:24.185Z,100297.66
2023-05-15T00:19:57.962Z,100293.31
2023-05-15T00:20:30.122Z,100294.41
2023-05-15T00:21:05.053Z,100303.41
2023-05-15T00:21:37.827Z,100300.22
2023-05-15T00:22:10.093Z,100293.94
2023-05-15T00:22:44.848Z,100297.50
2023-05-15T00:23:17.029Z,100291.22
2023-05-15T00:23:49.264Z,100297.50
2023-05-15T00:24:24.880Z,100290.09
2023-05-15T00:24:57.292Z,100292.03
2023-05-15T00:25:29.650Z,100289.78
2023-05-15T00:26:01.796Z,100297.97
2023-05-15T00:26:39.607Z,100285.13
2023-05-15T00:27:11.746Z,100287.38
2023-05-15T00:27:43.878Z,100286.25
2023-05-15T00:28:18.618Z,100297.16
2023-05-15T00:28:50.982Z,100287.03
2023-05-15T00:29:23.873Z,100297.97
2023-05-15T00:29:58.609Z,100290.59
2023-05-15T00:30:30.796Z,100297.16
2023-05-15T00:31:03.016Z,100298.75
2023-05-15T00:31:35.275Z,100296.03
2023-05-15T00:32:10.823Z,100296.84
2023-05-15T00:32:43.193Z,100297.16
2023-05-15T00:33:15.857Z,100297.16
2023-05-15T00:33:50.981Z,100288.16
2023-05-15T00:34:23.272Z,100293.16
2023-05-15T00:34:55.505Z,100287.69
2023-05-15T00:35:28.411Z,100290.41
2023-05-15T00:36:03.153Z,100292.34
2023-05-15T00:36:35.771Z,100287.19
2023-05-15T00:37:08.738Z,100298.91
2023-05-15T00:37:43.623Z,100291.53
2023-05-15T00:38:16.346Z,100285.59
2023-05-15T00:38:48.553Z,100292.97
2023-05-15T00:39:23.248Z,100290.25
2023-05-15T00:39:55.516Z,100289.75
2023-05-15T00:40:29.397Z,100287.81
2023-05-15T00:41:04.466Z,100289.75
2023-05-15T00:41:41.300Z,100291.19
2023-05-15T00:42:13.753Z,100290.69
2023-05-15T00:42:49.417Z,100291.50
2023-05-15T00:43:22.974Z,100290.19
2023-05-15T00:43:56.381Z,100296.75
2023-05-15T00:44:33.580Z,100292.41
2023-05-15T00:45:09.504Z,100289.22
2023-05-15T00:45:42.966Z,100289.50
2023-05-15T00:46:19.171Z,100287.91
2023-05-15T00:46:53.505Z,100293.34
2023-05-15T00:47:27.244Z,100290.16
2023-05-15T00:48:03.647Z,100293.19
2023-05-15T00:48:36.592Z,100289.66
2023-05-15T00:49:13.757Z,100288.03
2023-05-15T00:49:49.927Z,100291.88
2023-05-15T00:50:24.984Z,100286.25
2023-05-15T00:51:00.638Z,100285.13
2023-05-15T00:51:33.204Z,100282.72
2023-05-15T00:52:08.608Z,100288.16
2023-05-15T00:52:43.464Z,100282.25
2023-05-15T00:53:15.920Z,100285.78
2023-05-15T00:53:48.900Z,100282.25
2023-05-15T00:54:23.646Z,100282.25
2023-05-15T00:54:55.844Z,100288.00
2023-05-15T00:55:29.677Z,100291.53
2023-05-15T00:56:06.985Z,100285.56
2023-05-15T00:56:43.956Z,100280.75
2023-05-15T00:57:17.736Z,100279.78
2023-05-15T00:57:53.352Z,100286.69
2023-05-15T00:58:27.810Z,100285.06
2023-05-15T00:59:02.833Z,100283.75
2023-05-15T00:59:37.867Z,100288.72
2023-05-15T01:00:11.069Z,100285.50
2023-05-15T01:00:43.879Z,100282.78
2023-05-15T01:01:19.885Z,100287.75
2023-05-15T01:01:52.184Z,100286.44
2023-05-15T01:02:24.495Z,100284.50
2023-05-15T01:02:59.408Z,100287.56
2023-05-15T01:03:33.026Z,100289.78
2023-05-15T01:04:06.002Z,100286.25
2023-05-15T01:04:40.773Z,100283.84
2023-05-15T01:05:13.697Z,100289.63
2023-05-15T01:05:46.528Z,100291.22
2023-05-15T01:06:21.388Z,100287.53
2023-05-15T01:06:54.222Z,100283.47
2023-05-15T01:07:27.153Z,100286.22
2023-05-15T01:08:09.683Z,100283.78
2023-05-15T01:08:46.106Z,100278.97
2023-05-15T01:09:19.668Z,100281.22
2023-05-15T01:09:56.148Z,100278.50
2023-05-15T01:10:28.783Z,100282.63
2023-05-15T01:11:03.202Z,100287.25
2023-05-15T01:11:40.765Z,100280.19
2023-05-15T01:12:16.236Z,100280.03
2023-05-15T01:12:53.459Z,100276.81
2023-05-15T01:13:28.284Z,100277.94
2023-05-15T01:14:00.666Z,100278.22
2023-05-15T01:14:32.808Z,100281.28
2023-05-15T01:15:08.669Z,100278.56
2023-05-15T01:15:41.667Z,100278.84
2023-05-15T01:16:16.374Z,100275.63
2023-05-15T01:16:48.618Z,100276.75
2023-05-15T01:17:20.734Z,100276.75
2023-05-15T01:17:55.577Z,100275.94
2023-05-15T01:18:32.640Z,100283.31
2023-05-15T01:19:05.697Z,100278.97
2023-05-15T01:19:41.229Z,100280.91
2023-05-15T01:20:18.556Z,100282.00
2023-05-15T01:21:09.762Z,100278.00
2023-05-15T01:22:25.761Z,100278.72
2023-05-15T01:23:12.533Z,100283.34
2023-05-15T01:23:58.584Z,100279.50
2023-05-15T01:24:50.281Z,100280.91
2023-05-15T01:26:06.437Z,100283.75
2023-05-15T01:27:08.258Z,100280.84
2023-05-15T01:27:45.072Z,100284.63
2023-05-15T01:28:25.168Z,100287.56
2023-05-15T01:29:01.731Z,100276.34
2023-05-15T01:29:41.605Z,100285.00
2023-05-15T01:30:22.036Z,100278.75
2023-05-15T01:30:57.761Z,100281.78
2023-05-15T01:31:32.181Z,100287.22
2023-05-15T01:32:12.017Z,100280.97
2023-05-15T01:32:51.309Z,100275.84
2023-05-15T01:33:31.631Z,100281.28
2023-05-15T01:34:07.447Z,100287.84
2023-05-15T01:34:49.084Z,100281.59
2023-05-15T01:35:29.420Z,100284.63
2023-05-15T01:36:06.185Z,100279.44
2023-05-15T01:36:43.269Z,100276.38
2023-05-15T01:37:24.226Z,100285.88
2023-05-15T01:38:03.386Z,100288.88
2023-05-15T01:38:39.386Z,100286.16
2023-05-15T01:39:14.773Z,100289.19
2023-05-15T01:39:50.160Z,100286.97
2023-05-15T01:40:26.494Z,100290.50
2023-05-15T01:41:03.369Z,100285.06
2023-05-15T01:41:44.461Z,100285.53
2023-05-15T01:42:24.033Z,100286.97
2023-05-15T01:43:00.924Z,100287.78
2023-05-15T01:43:38.194Z,100283.44
2023-05-15T01:44:15.755Z,100287.59
2023-05-15T01:44:53.781Z,100281.63
2023-05-15T01:45:31.049Z,100283.38
2023-05-15T01:46:04.209Z,100284.47
2023-05-15T01:46:39.705Z,100281.75
2023-05-15T01:47:17.841Z,100285.56
2023-05-15T01:47:53.489Z,100281.25
2023-05-15T01:48:27.839Z,100285.38
2023-05-15T01:49:06.014Z,100277.53
2023-05-15T01:49:38.885Z,100279.47
2023-05-15T01:50:15.652Z,100280.56
2023-05-15T01:50:51.464Z,100278.66
2023-05-15T01:51:28.751Z,100273.22
2023-05-15T01:52:07.108Z,100277.03
2023-05-15T01:52:44.129Z,100285.50
2023-05-15T01:53:21.713Z,100282.47
2023-05-15T01:53:54.758Z,100281.97
2023-05-15T01:54:29.266Z,100277.31
2023-05-15T01:55:03.266Z,100280.84
2023-05-15T01:55:38.568Z,100280.84
2023-05-15T01:56:15.625Z,100278.94
2023-05-15T01:56:48.234Z,100281.66
2023-05-15T01:57:27.459Z,100280.56
2023-05-15T01:58:01.959Z,100279.47
2023-05-15T01:58:34.657Z,100281.03
2023-05-15T01:59:11.378Z,100284.28
2023-05-15T01:59:45.079Z,100278.84
2023-05-15T02:00:18.237Z,100287.81
2023-05-15T02:00:54.113Z,100281.25
2023-05-15T02:01:27.934Z,100282.84
2023-05-15T02:02:01.185Z,100283.66
2023-05-15T02:02:33.838Z,100284.16
2023-05-15T02:03:09.891Z,100283.06
2023-05-15T02:03:42.770Z,100275.19
2023-05-15T02:04:15.730Z,100283.88
2023-05-15T02:04:52.158Z,100280.03
2023-05-15T02:05:26.898Z,100278.44
2023-05-15T02:06:02.246Z,100277.28
2023-05-15T02:06:34.603Z,100279.22
2023-05-15T02:07:07.566Z,100273.75
2023-05-15T02:07:43.717Z,100277.63
2023-05-15T02:08:16.933Z,100276.81
2023-05-15T02:08:50.151Z,100277.63
2023-05-15T02:09:26.659Z,100277.91
2023-05-15T02:10:00.181Z,100277.91
2023-05-15T02:10:33.442Z,100270.84
2023-05-15T02:11:09.128Z,100272.78
2023-05-15T02:11:42.081Z,100270.03
2023-05-15T02:12:15.443Z,100269.25
2023-05-15T02:12:53.057Z,100279.03
2023-05-15T02:13:27.707Z,100275.81
2023-05-15T02:14:01.652Z,100282.06
2023-05-15T02:14:37.854Z,100274.69
2023-05-15T02:15:11.046Z,100275.50
2023-05-15T02:15:43.729Z,100282.84
2023-05-15T02:16:18.462Z,100278.22
2023-05-15T02:16:51.332Z,100276.63
2023-05-15T02:17:24.103Z,100281.25
2023-05-15T02:17:58.996Z,100278.53
2023-05-15T02:18:31.221Z,100276.91
2023-05-15T02:19:03.634Z,100276.91
2023-05-15T02:19:38.641Z,100275.81
2023-05-15T02:20:11.709Z,100284.78
2023-05-15T02:20:44.544Z,100283.47
2023-05-15T02:21:19.318Z,100282.66
2023-05-15T02:21:51.521Z,100284.28
2023-05-15T02:22:23.705Z,100283.47
2023-05-15T02:22:58.431Z,100277.22
2023-05-15T02:23:30.612Z,100281.03
2023-05-15T02:24:02.808Z,100280.28
2023-05-15T02:24:34.956Z,100275.94
2023-05-15T02:25:11.741Z,100273.78
2023-05-15T02:25:50.440Z,100278.75
2023-05-15T02:26:31.717Z,100275.84
2023-05-15T02:27:14.694Z,100272.63
2023-05-15T02:27:57.863Z,100278.69
2023-05-15T02:28:43.224Z,100276.56
2023-05-15T02:29:20.916Z,100280.69
2023-05-15T02:30:04.549Z,100279.88
2023-05-15T02:30:46.025Z,100272.81
2023-05-15T02:31:25.246Z,100280.50
2023-05-15T02:32:04.202Z,100283.53
2023-05-15T02:32:50.155Z,100282.22
2023-05-15T02:33:32.202Z,100285.84
2023-05-15T02:34:12.645Z,100285.34
2023-05-15T02:34:53.187Z,100282.13
2023-05-15T02:35:36.023Z,100279.72
2023-05-15T02:36:11.550Z,100282.72
2023-05-15T02:36:50.399Z,100288.97
2023-05-15T02:37:27.602Z,100283.03
2023-05-15T02:38:03.251Z,100276.28
2023-05-15T02:38:41.923Z,100281.72
2023-05-15T02:39:16.464Z,100285.84
2023-05-15T02:39:54.031Z,100272.22
2023-05-15T02:40:30.862Z,100275.25
2023-05-15T02:41:05.568Z,100285.03
2023-05-15T02:41:39.421Z,100275.75
2023-05-15T02:42:15.890Z,100277.59
2023-05-15T02:42:52.856Z,100276.28
2023-05-15T02:43:27.358Z,100277.91
2023-05-15T02:44:03.457Z,100281.13
2023-05-15T02:44:37.601Z,100277.28
2023-05-15T02:45:11.659Z,100279.72
2023-05-15T02:45:48.838Z,100282.94
2023-05-15T02:46:25.519Z,100269.34
2023-05-15T02:46:59.861Z,100274.47
2023-05-15T02:47:36.427Z,100279.59
2023-05-15T02:48:09.457Z,100277.69
2023-05-15T02:48:43.719Z,100279.31
2023-05-15T02:49:18.817Z,100271.63
2023-05-15T02:49:52.397Z,100276.78
2023-05-15T02:50:25.536Z,100281.13
2023-05-15T02:51:00.526Z,100274.25
2023-05-15T02:51:32.895Z,100282.41
2023-05-15T02:52:06.042Z,100277.50
2023-05-15T02:52:41.096Z,100285.31
2023-05-15T02:53:14.682Z,100279.88
2023-05-15T02:53:47.044Z,100272.53
2023-05-15T02:54:22.416Z,100279.28
2023-05-15T02:54:54.603Z,100280.41
2023-05-15T02:55:27.119Z,100276.56
2023-05-15T02:55:59.445Z,100273.84
2023-05-15T02:56:34.244Z,100273.84
2023-05-15T02:57:08.183Z,100271.44
2023-05-15T02:57:40.538Z,100274.16
2023-05-15T02:58:18.067Z,100276.88
2023-05-15T02:58:50.406Z,100276.34
2023-05-15T02:59:23.125Z,100269.00
2023-05-15T02:59:59.016Z,100271.72
2023-05-15T03:00:31.217Z,100284.53
2023-05-15T03:01:04.768Z,100270.09
2023-05-15T03:01:39.698Z,100269.31
2023-05-15T03:02:12.034Z,100265.47
2023-05-15T03:02:44.236Z,100270.09
2023-05-15T03:03:19.014Z,100270.91
2023-05-15T03:03:51.298Z,100273.97
2023-05-15T03:04:23.823Z,100267.38
2023-05-15T03:04:58.725Z,100268.19
2023-05-15T03:05:30.882Z,100269.00
2023-05-15T03:06:03.106Z,100275.25
2023-05-15T03:06:37.925Z,100273.03
2023-05-15T03:07:10.120Z,100276.56
2023-05-15T03:07:42.493Z,100267.59
2023-05-15T03:08:17.935Z,100273.03
2023-05-15T03:08:50.078Z,100279.28
2023-05-15T03:09:22.209Z,100272.25
2023-05-15T03:09:56.913Z,100274.63
2023-05-15T03:10:29.222Z,100277.34
2023-05-15T03:11:01.480Z,100278.69
2023-05-15T03:11:36.344Z,100276.75
2023-05-15T03:12:10.234Z,100269.41
2023-05-15T03:12:42.391Z,100276.75
2023-05-15T03:13:19.775Z,100281.88
2023-05-15T03:13:51.910Z,100274.34
2023-05-15T03:14:24.257Z,100276.75
2023-05-15T03:14:59.174Z,100276.75
2023-05-15T03:15:31.501Z,100272.13
2023-05-15T03:16:03.873Z,100269.41
2023-05-15T03:16:39.286Z,100271.81
2023-05-15T03:17:11.645Z,100271.00
2023-05-15T03:17:44.004Z,100271.00
2023-05-15T03:18:18.620Z,100266.38
2023-05-15T03:18:53.765Z,100267.16
2023-05-15T03:19:26.080Z,100264.44
2023-05-15T03:19:58.372Z,100265.25
2023-05-15T03:20:33.162Z,100264.16
2023-05-15T03:21:05.930Z,100269.28
2023-05-15T03:21:38.236Z,100268.50
2023-05-15T03:22:13.072Z,100274.41
2023-05-15T03:22:45.232Z,100268.97
2023-05-15T03:23:17.362Z,100268.69
2023-05-15T03:23:52.155Z,100265.97
2023-05-15T03:24:24.427Z,100268.69
2023-05-15T03:24:56.562Z,100264.53
2023-05-15T03:25:31.545Z,100265.34
2023-05-15T03:26:03.861Z,100266.16
2023-05-15T03:26:36.051Z,100265.84
2023-05-15T03:27:08.342Z,100271.78
2023-05-15T03:27:43.227Z,100270.66
2023-05-15T03:28:17.926Z,100266.84
2023-05-15T03:28:50.086Z,100273.09
2023-05-15T03:29:24.836Z,100268.13
2023-05-15T03:29:57.312Z,100271.66
2023-05-15T03:30:29.451Z,100264.31
2023-05-15T03:31:05.099Z,100267.53
2023-05-15T03:31:37.444Z,100279.22
2023-05-15T03:32:09.678Z,100272.66
2023-05-15T03:32:44.536Z,100268.53
2023-05-15T03:33:16.726Z,100272.84
2023-05-15T03:33:50.177Z,100276.06
2023-05-15T03:34:24.908Z,100268.72
2023-05-15T03:34:57.036Z,100275.78
2023-05-15T03:35:29.238Z,100275.44
2023-05-15T03:36:04.202Z,100277.06
2023-05-15T03:36:38.902Z,100275.97
2023-05-15T03:37:11.129Z,100278.69
2023-05-15T03:37:43.342Z,100267.47
2023-05-15T03:38:19.211Z,100279.16
2023-05-15T03:38:51.476Z,100275.97
2023-05-15T03:39:23.620Z,100280.31
2023-05-15T03:39:58.356Z,100279.16
2023-05-15T03:40:30.497Z,100276.44
2023-05-15T03:41:03.097Z,100284.13
2023-05-15T03:41:40.274Z,100277.88
2023-05-15T03:42:12.469Z,100284.13
2023-05-15T03:42:46.333Z,100282.53
2023-05-15T03:43:23.608Z,100279.78
2023-05-15T03:43:55.790Z,100278.19
2023-05-15T03:44:27.957Z,100284.72
2023-05-15T03:45:02.882Z,100281.72
2023-05-15T03:45:35.371Z,100276.56
2023-05-15T03:46:07.624Z,100280.41
2023-05-15T03:46:42.539Z,100270.34
2023-05-15T03:47:16.512Z,100281.22
2023-05-15T03:47:48.790Z,100276.88
2023-05-15T03:48:23.572Z,100276.56
2023-05-15T03:48:56.181Z,100280.91
2023-05-15T03:49:28.460Z,100280.09
2023-05-15T03:50:03.488Z,100275.16
2023-05-15T03:50:39.577Z,100278.69
2023-05-15T03:51:11.835Z,100278.38
2023-05-15T03:51:46.579Z,100273.72
2023-05-15T03:52:19.344Z,100275.63
2023-05-15T03:52:51.667Z,100281.59
2023-05-15T03:53:26.494Z,100271.50
2023-05-15T03:53:58.701Z,100275.84
2023-05-15T03:54:30.976Z,100279.38
2023-05-15T03:55:06.226Z,100276.34
2023-05-15T03:55:38.490Z,100280.16
2023-05-15T03:56:11.053Z,100276.34
2023-05-15T03:56:45.780Z,100278.75
2023-05-15T03:57:17.930Z,100274.94
2023-05-15T03:57:51.015Z,100273.00
2023-05-15T03:58:28.342Z,100274.31
2023-05-15T03:59:00.522Z,100273.50
2023-05-15T03:59:32.701Z,100273.69
2023-05-15T04:00:11.211Z,100273.69
2023-05-15T04:00:46.150Z,100273.69
2023-05-15T04:01:18.330Z,100273.84
2023-05-15T04:02:04.213Z,100275.47
2023-05-15T04:02:38.248Z,100275.81
2023-05-15T04:03:13.289Z,100273.56
2023-05-15T04:03:45.607Z,100277.91
2023-05-15T04:04:17.730Z,100275.97
2023-05-15T04:04:52.827Z,100274.88
2023-05-15T04:05:25.143Z,100280.31
2023-05-15T04:05:57.449Z,100280.31
2023-05-15T04:06:32.249Z,100281.91
2023-05-15T04:07:05.034Z,100281.91
2023-05-15T04:07:37.933Z,100284.63
2023-05-15T04:08:13.054Z,100285.78
2023-05-15T04:08:45.192Z,100284.97
2023-05-15T04:09:17.614Z,100284.97
2023-05-15T04:09:52.325Z,100284.97
2023-05-15T04:10:24.760Z,100286.06
2023-05-15T04:10:57.256Z,100290.72
2023-05-15T04:11:32.110Z,100285.56
2023-05-15T04:12:05.144Z,100289.41
2023-05-15T04:12:37.578Z,100289.72
2023-05-15T04:13:12.310Z,100284.56
2023-05-15T04:13:47.122Z,100283.75
2023-05-15T04:14:19.257Z,100279.44
2023-05-15T04:14:54.026Z,100288.72
2023-05-15T04:15:27.374Z,100284.38
2023-05-15T04:16:00.169Z,100282.78
2023-05-15T04:16:35.079Z,100278.94
2023-05-15T04:17:07.309Z,100281.19
2023-05-15T04:17:39.562Z,100283.09
2023-05-15T04:18:14.334Z,100286.63
2023-05-15T04:18:46.727Z,100284.19
2023-05-15T04:19:19.081Z,100294.28
2023-05-15T04:19:54.046Z,100289.94
2023-05-15T04:20:26.320Z,100288.34
2023-05-15T04:20:58.450Z,100285.59
2023-05-15T04:21:30.682Z,100292.19
2023-05-15T04:22:05.380Z,100295.72
2023-05-15T04:22:37.572Z,100286.75
2023-05-15T04:23:09.730Z,100292.19
2023-05-15T04:23:44.414Z,100285.59
2023-05-15T04:24:16.647Z,100294.59
2023-05-15T04:24:48.770Z,100284.81
2023-05-15T04:25:24.603Z,100288.34
2023-05-15T04:25:57.147Z,100295.72
2023-05-15T04:26:29.311Z,100286.41
2023-05-15T04:27:04.521Z,100295.41
2023-05-15T04:27:36.842Z,100291.88
2023-05-15T04:28:08.962Z,100288.03
2023-05-15T04:28:52.518Z,100290.75
2023-05-15T04:29:37.446Z,100283.81
2023-05-15T04:30:13.712Z,100294.41
2023-05-15T04:30:46.206Z,100288.16
2023-05-15T04:31:18.670Z,100293.28
2023-05-15T04:31:53.601Z,100285.94
2023-05-15T04:32:25.772Z,100283.22
2023-05-15T04:33:00.556Z,100293.00
2023-05-15T04:33:32.763Z,100289.47
2023-05-15T04:34:05.333Z,100283.22
2023-05-15T04:34:41.194Z,100288.34
2023-05-15T04:35:14.372Z,100288.34
2023-05-15T04:35:48.281Z,100286.13
2023-05-15T04:36:21.101Z,100293.19
2023-05-15T04:36:55.941Z,100289.34
2023-05-15T04:37:28.215Z,100291.25
2023-05-15T04:38:00.350Z,100284.69
2023-05-15T04:38:35.345Z,100283.28
2023-05-15T04:39:07.497Z,100286.00
2023-05-15T04:39:39.735Z,100285.38
2023-05-15T04:40:16.620Z,100285.56
2023-05-15T04:40:49.060Z,100287.19
2023-05-15T04:41:21.207Z,100279.50
2023-05-15T04:41:56.017Z,100283.53
2023-05-15T04:42:29.024Z,100278.88
2023-05-15T04:43:03.152Z,100283.22
2023-05-15T04:43:38.815Z,100283.75
2023-05-15T04:44:11.590Z,100289.69
2023-05-15T04:44:46.879Z,100284.72
2023-05-15T04:45:21.862Z,100278.97
2023-05-15T04:45:54.126Z,100280.59
2023-05-15T04:46:26.673Z,100285.41
2023-05-15T04:47:01.447Z,100280.47
2023-05-15T04:47:33.668Z,100281.28
2023-05-15T04:48:06.793Z,100275.50
2023-05-15T04:48:41.620Z,100278.41
2023-05-15T04:49:13.788Z,100283.56
2023-05-15T04:49:47.939Z,100277.81
2023-05-15T04:50:23.089Z,100277.47
2023-05-15T04:50:55.488Z,100277.69
2023-05-15T04:51:27.628Z,100278.50
2023-05-15T04:52:02.346Z,100268.88
2023-05-15T04:52:34.456Z,100275.13
2023-05-15T04:53:06.721Z,100277.22
2023-05-15T04:53:41.499Z,100284.00
2023-05-15T04:54:13.675Z,100276.63
2023-05-15T04:54:46.787Z,100275.19
2023-05-15T04:55:21.606Z,100277.28
2023-05-15T04:55:53.857Z,100272.63
2023-05-15T04:56:26.024Z,100280.50
2023-05-15T04:57:00.798Z,100279.06
2023-05-15T04:57:32.983Z,100274.41
2023-05-15T04:58:05.170Z,100278.47
2023-05-15T04:58:39.980Z,100276.19
2023-05-15T04:59:13.576Z,100271.25
2023-05-15T04:59:48.277Z,100277.53
2023-05-15T05:00:23.071Z,100277.19
2023-05-15T05:00:55.251Z,100276.88
2023-05-15T05:01:27.438Z,100278.16
2023-05-15T05:02:02.402Z,100281.41
2023-05-15T05:02:34.576Z,100274.84
2023-05-15T05:03:09.366Z,100275.31
2023-05-15T05:03:41.615Z,100275.81
2023-05-15T05:04:14.987Z,100278.19
2023-05-15T05:04:49.917Z,100275.69
2023-05-15T05:05:22.292Z,100268.28
2023-05-15T05:05:54.610Z,100272.63
2023-05-15T05:06:30.440Z,100280.50
2023-05-15T05:07:05.904Z,100274.22
2023-05-15T05:07:38.082Z,100272.00
2023-05-15T05:08:12.786Z,100276.00
2023-05-15T05:08:44.914Z,100271.38
2023-05-15T05:09:19.536Z,100271.06
2023-05-15T05:09:54.275Z,100270.72
2023-05-15T05:10:26.598Z,100273.16
2023-05-15T05:10:58.732Z,100266.59
2023-05-15T05:11:33.501Z,100277.16
2023-05-15T05:12:06.734Z,100273.31
2023-05-15T05:12:38.941Z,100279.59
2023-05-15T05:13:13.799Z,100278.13
2023-05-15T05:13:46.001Z,100278.13
2023-05-15T05:14:18.154Z,100270.75
2023-05-15T05:14:56.606Z,100278.38
2023-05-15T05:15:28.836Z,100270.47
2023-05-15T05:16:01.120Z,100265.84
2023-05-15T05:16:36.003Z,100278.03
2023-05-15T05:17:08.417Z,100276.09
2023-05-15T05:17:43.160Z,100270.34
2023-05-15T05:18:15.952Z,100267.63
2023-05-15T05:18:48.217Z,100264.56
2023-05-15T05:19:23.081Z,100271.63
2023-05-15T05:19:55.253Z,100270.50
2023-05-15T05:20:29.958Z,100269.41
2023-05-15T05:21:02.372Z,100269.06
2023-05-15T05:21:34.659Z,100262.50
2023-05-15T05:22:09.502Z,100263.81
2023-05-15T05:22:42.654Z,100270.06
2023-05-15T05:23:15.328Z,100262.66
2023-05-15T05:23:50.095Z,100260.44
2023-05-15T05:24:22.313Z,100264.78
2023-05-15T05:24:57.029Z,100251.13
2023-05-15T05:25:29.176Z,100258.97
2023-05-15T05:26:01.850Z,100259.47
2023-05-15T05:26:37.272Z,100261.91
2023-05-15T05:27:09.535Z,100258.03
2023-05-15T05:27:41.723Z,100255.00
2023-05-15T05:28:16.471Z,100260.13
2023-05-15T05:28:48.735Z,100259.00
2023-05-15T05:29:20.890Z,100253.22
2023-05-15T05:29:58.241Z,100256.44
2023-05-15T05:30:30.398Z,100258.38
2023-05-15T05:31:03.316Z,100258.38
2023-05-15T05:31:38.145Z,100260.47
2023-05-15T05:32:10.355Z,100255.00
2023-05-15T05:32:42.972Z,100258.22
2023-05-15T05:33:18.140Z,100260.63
2023-05-15T05:33:51.546Z,100257.88
2023-05-15T05:34:23.743Z,100263.84
2023-05-15T05:34:58.458Z,100261.59
2023-05-15T05:35:30.842Z,100262.41
2023-05-15T05:36:02.979Z,100268.34
2023-05-15T05:36:37.682Z,100257.91
2023-05-15T05:37:09.929Z,100260.31
2023-05-15T05:37:42.086Z,100262.75
2023-05-15T05:38:16.878Z,100265.13
2023-05-15T05:38:49.032Z,100254.22
2023-05-15T05:39:21.456Z,100256.63
2023-05-15T05:39:56.286Z,100266.09
2023-05-15T05:40:28.425Z,100262.25
2023-05-15T05:41:01.570Z,100261.13
2023-05-15T05:41:36.304Z,100262.41
2023-05-15T05:42:08.487Z,100256.94
2023-05-15T05:42:44.536Z,100262.09
2023-05-15T05:43:16.686Z,100260.19
2023-05-15T05:43:48.890Z,100257.94
2023-05-15T05:44:23.677Z,100257.94
2023-05-15T05:44:58.642Z,100260.34
2023-05-15T05:45:31.297Z,100258.41
2023-05-15T05:46:06.199Z,100257.28
2023-05-15T05:46:38.650Z,100261.63
2023-05-15T05:47:10.915Z,100258.56
2023-05-15T05:47:45.735Z,100259.06
2023-05-15T05:48:18.271Z,100250.56
2023-05-15T05:48:50.745Z,100258.41
2023-05-15T05:49:25.687Z,100254.88
2023-05-15T05:49:58.061Z,100249.91
2023-05-15T05:50:30.262Z,100250.72
2023-05-15T05:51:05.281Z,100254.72
2023-05-15T05:51:37.642Z,100254.72
2023-05-15T05:52:10.210Z,100248.13
2023-05-15T05:52:45.032Z,100254.06
2023-05-15T05:53:17.176Z,100251.34
2023-05-15T05:53:49.293Z,100251.81
2023-05-15T05:54:23.977Z,100246.09
2023-05-15T05:54:56.157Z,100248.47
2023-05-15T05:55:28.356Z,100248.97
2023-05-15T05:56:03.411Z,100249.44
2023-05-15T05:56:35.660Z,100252.16
2023-05-15T05:57:07.898Z,100246.06
2023-05-15T05:57:42.810Z,100243.34
2023-05-15T05:58:24.989Z,100252.81
2023-05-15T05:59:02.289Z,100249.28
2023-05-15T05:59:36.008Z,100249.75
2023-05-15T06:00:12.725Z,100248.66
2023-05-15T06:00:47.868Z,100246.38
2023-05-15T06:01:20.102Z,100249.59
2023-05-15T06:01:52.436Z,100251.19
2023-05-15T06:02:27.602Z,100253.59
2023-05-15T06:03:00.603Z,100247.03
2023-05-15T06:03:34.109Z,100248.63
2023-05-15T06:04:09.045Z,100250.22
2023-05-15T06:04:41.389Z,100242.03
2023-05-15T06:05:13.729Z,100251.50
2023-05-15T06:05:48.798Z,100246.06
2023-05-15T06:06:20.994Z,100243.00
2023-05-15T06:06:53.959Z,100243.78
2023-05-15T06:07:28.730Z,100248.13
2023-05-15T06:08:04.232Z,100240.72
2023-05-15T06:08:36.472Z,100245.09
2023-05-15T06:09:11.273Z,100249.44
2023-05-15T06:09:43.632Z,100244.75
2023-05-15T06:10:16.087Z,100242.50
2023-05-15T06:10:51.114Z,100242.19
2023-05-15T06:11:25.156Z,100244.91
2023-05-15T06:11:57.828Z,100247.31
2023-05-15T06:12:32.667Z,100241.53
2023-05-15T06:13:04.811Z,100250.22
2023-05-15T06:13:37.120Z,100245.56
2023-05-15T06:14:11.877Z,100241.66
2023-05-15T06:14:44.216Z,100240.53
2023-05-15T06:15:19.198Z,100241.03
2023-05-15T06:15:54.512Z,100243.78
2023-05-15T06:16:26.945Z,100238.78
2023-05-15T06:16:59.108Z,100244.22
2023-05-15T06:17:33.928Z,100243.91
2023-05-15T06:18:06.390Z,100240.84
2023-05-15T06:18:38.573Z,100243.25
2023-05-15T06:19:13.330Z,100245.69
2023-05-15T06:19:45.470Z,100242.13
2023-05-15T06:20:18.176Z,100244.56
2023-05-15T06:20:53.605Z,100234.88
2023-05-15T06:21:25.718Z,100241.16
2023-05-15T06:21:57.861Z,100244.69
2023-05-15T06:22:33.215Z,100242.44
2023-05-15T06:23:05.674Z,100237.75
2023-05-15T06:23:37.914Z,100236.63
2023-05-15T06:24:12.624Z,100241.78
2023-05-15T06:24:44.793Z,100235.97
2023-05-15T06:25:16.979Z,100241.94
2023-05-15T06:25:51.813Z,100245.94
2023-05-15T06:26:24.257Z,100240.47
2023-05-15T06:26:56.850Z,100246.44
2023-05-15T06:27:31.829Z,100244.50
2023-05-15T06:28:04.411Z,100243.34
2023-05-15T06:28:39.239Z,100235.13
2023-05-15T06:29:11.528Z,100242.72
2023-05-15T06:29:43.688Z,100236.91
2023-05-15T06:30:21.332Z,100242.84
2023-05-15T06:30:53.591Z,100242.84
2023-05-15T06:31:26.107Z,100235.13
2023-05-15T06:32:00.957Z,100234.81
2023-05-15T06:32:34.539Z,100233.69
2023-05-15T06:33:09.515Z,100240.78